sensor_id;sensor_type;location;lat;lon;timestamp;P1;durP1;ratioP1;P2;durP2;ratioP2
30743;SDS011;17486;46.738;7.622;2022-07-29T00:00:34;5.50;;;3.20;;
30743;SDS011;17486;46.738;7.622;2022-07-29T00:02:59;3.40;;;3.03;;
30743;SDS011;17486;46.738;7.622;2022-07-29T00:05:25;3.33;;;3.03;;
30743;SDS011;17486;46.738;7.622;2022-07-29T00:07:50;3.92;;;3.20;;
30743;SDS011;17486;46.738;7.622;2022-07-29T00:10:16;4.63;;;2.97;;
30743;SDS011;17486;46.738;7.622;2022-07-29T00:12:41;5.07;;;2.85;;
30743;SDS011;17486;46.738;7.622;2022-07-29T00:15:07;3.80;;;2.97;;
30743;SDS011;17486;46.738;7.622;2022-07-29T00:20:54;4.43;;;2.78;;
30743;SDS011;17486;46.738;7.622;2022-07-29T00:23:20;3.08;;;2.83;;
30743;SDS011;17486;46.738;7.622;2022-07-29T00:25:45;3.33;;;3.03;;
30743;SDS011;17486;46.738;7.622;2022-07-29T00:28:11;4.53;;;2.70;;
30743;SDS011;17486;46.738;7.622;2022-07-29T00:30:36;4.50;;;2.92;;
30743;SDS011;17486;46.738;7.622;2022-07-29T00:33:01;2.90;;;2.70;;
30743;SDS011;17486;46.738;7.622;2022-07-29T00:35:27;3.22;;;2.90;;
30743;SDS011;17486;46.738;7.622;2022-07-29T00:38:12;4.25;;;3.05;;
30743;SDS011;17486;46.738;7.622;2022-07-29T00:40:41;3.28;;;2.85;;
30743;SDS011;17486;46.738;7.622;2022-07-29T00:43:07;3.10;;;2.80;;
30743;SDS011;17486;46.738;7.622;2022-07-29T00:45:33;2.75;;;2.55;;
30743;SDS011;17486;46.738;7.622;2022-07-29T00:47:59;3.25;;;2.47;;
30743;SDS011;17486;46.738;7.622;2022-07-29T00:50:24;3.97;;;3.28;;
30743;SDS011;17486;46.738;7.622;2022-07-29T00:52:50;4.10;;;3.05;;
30743;SDS011;17486;46.738;7.622;2022-07-29T00:55:17;3.63;;;3.17;;
30743;SDS011;17486;46.738;7.622;2022-07-29T00:57:43;3.80;;;2.70;;
30743;SDS011;17486;46.738;7.622;2022-07-29T01:00:11;3.15;;;2.85;;
30743;SDS011;17486;46.738;7.622;2022-07-29T01:02:40;2.90;;;2.60;;
30743;SDS011;17486;46.738;7.622;2022-07-29T01:05:05;3.40;;;2.70;;
30743;SDS011;17486;46.738;7.622;2022-07-29T01:07:32;3.20;;;2.80;;
30743;SDS011;17486;46.738;7.622;2022-07-29T01:09:59;3.92;;;2.88;;
30743;SDS011;17486;46.738;7.622;2022-07-29T01:12:28;4.55;;;2.50;;
30743;SDS011;17486;46.738;7.622;2022-07-29T01:14:59;3.72;;;2.75;;
30743;SDS011;17486;46.738;7.622;2022-07-29T01:17:27;2.67;;;2.30;;
30743;SDS011;17486;46.738;7.622;2022-07-29T01:20:07;2.78;;;2.50;;
30743;SDS011;17486;46.738;7.622;2022-07-29T01:30:56;3.08;;;2.50;;
30743;SDS011;17486;46.738;7.622;2022-07-29T01:33:25;4.68;;;2.75;;
30743;SDS011;17486;46.738;7.622;2022-07-29T01:36:10;4.72;;;3.13;;
30743;SDS011;17486;46.738;7.622;2022-07-29T01:38:41;3.08;;;2.88;;
30743;SDS011;17486;46.738;7.622;2022-07-29T01:41:12;4.43;;;2.85;;
30743;SDS011;17486;46.738;7.622;2022-07-29T01:43:42;2.63;;;2.42;;
30743;SDS011;17486;46.738;7.622;2022-07-29T01:46:15;2.70;;;2.50;;
30743;SDS011;17486;46.738;7.622;2022-07-29T01:48:51;5.88;;;2.58;;
30743;SDS011;17486;46.738;7.622;2022-07-29T01:51:27;3.28;;;2.90;;
30743;SDS011;17486;46.738;7.622;2022-07-29T01:54:49;3.30;;;3.00;;
30743;SDS011;17486;46.738;7.622;2022-07-29T01:56:55;3.13;;;2.83;;
30743;SDS011;17486;46.738;7.622;2022-07-29T01:59:23;2.47;;;2.28;;
30743;SDS011;17486;46.738;7.622;2022-07-29T02:01:50;3.25;;;2.50;;
30743;SDS011;17486;46.738;7.622;2022-07-29T02:04:18;3.08;;;2.60;;
30743;SDS011;17486;46.738;7.622;2022-07-29T02:06:45;4.55;;;2.97;;
30743;SDS011;17486;46.738;7.622;2022-07-29T02:09:12;2.88;;;2.50;;
30743;SDS011;17486;46.738;7.622;2022-07-29T02:11:40;3.72;;;2.47;;
30743;SDS011;17486;46.738;7.622;2022-07-29T02:16:39;6.25;;;3.28;;
30743;SDS011;17486;46.738;7.622;2022-07-29T02:19:06;3.92;;;2.65;;
30743;SDS011;17486;46.738;7.622;2022-07-29T02:21:33;3.13;;;2.67;;
30743;SDS011;17486;46.738;7.622;2022-07-29T02:24:00;2.92;;;2.63;;
30743;SDS011;17486;46.738;7.622;2022-07-29T02:26:27;4.22;;;2.72;;
30743;SDS011;17486;46.738;7.622;2022-07-29T02:28:56;3.85;;;2.92;;
30743;SDS011;17486;46.738;7.622;2022-07-29T02:31:24;3.13;;;2.65;;
30743;SDS011;17486;46.738;7.622;2022-07-29T02:33:54;3.25;;;2.90;;
30743;SDS011;17486;46.738;7.622;2022-07-29T02:36:21;4.70;;;3.55;;
30743;SDS011;17486;46.738;7.622;2022-07-29T02:38:48;3.30;;;3.00;;
30743;SDS011;17486;46.738;7.622;2022-07-29T02:41:16;4.57;;;3.15;;
30743;SDS011;17486;46.738;7.622;2022-07-29T02:43:46;4.20;;;3.17;;
30743;SDS011;17486;46.738;7.622;2022-07-29T02:46:17;4.50;;;3.08;;
30743;SDS011;17486;46.738;7.622;2022-07-29T02:48:51;3.42;;;2.97;;
30743;SDS011;17486;46.738;7.622;2022-07-29T02:51:23;4.65;;;2.72;;
30743;SDS011;17486;46.738;7.622;2022-07-29T02:53:53;4.35;;;2.78;;
30743;SDS011;17486;46.738;7.622;2022-07-29T02:56:23;3.42;;;3.05;;
30743;SDS011;17486;46.738;7.622;2022-07-29T02:58:56;3.53;;;3.00;;
30743;SDS011;17486;46.738;7.622;2022-07-29T03:01:26;3.65;;;3.00;;
30743;SDS011;17486;46.738;7.622;2022-07-29T03:03:56;4.57;;;3.30;;
30743;SDS011;17486;46.738;7.622;2022-07-29T03:06:25;4.30;;;3.72;;
30743;SDS011;17486;46.738;7.622;2022-07-29T03:08:52;4.00;;;3.17;;
30743;SDS011;17486;46.738;7.622;2022-07-29T03:11:19;4.00;;;3.60;;
30743;SDS011;17486;46.738;7.622;2022-07-29T03:13:45;5.20;;;3.75;;
30743;SDS011;17486;46.738;7.622;2022-07-29T03:16:11;6.00;;;3.78;;
30743;SDS011;17486;46.738;7.622;2022-07-29T03:18:38;3.80;;;3.28;;
30743;SDS011;17486;46.738;7.622;2022-07-29T03:21:04;4.47;;;3.50;;
30743;SDS011;17486;46.738;7.622;2022-07-29T03:23:30;5.00;;;3.88;;
30743;SDS011;17486;46.738;7.622;2022-07-29T03:25:55;4.57;;;4.18;;
30743;SDS011;17486;46.738;7.622;2022-07-29T03:28:21;4.60;;;3.75;;
30743;SDS011;17486;46.738;7.622;2022-07-29T03:30:47;3.90;;;3.53;;
30743;SDS011;17486;46.738;7.622;2022-07-29T03:33:13;4.07;;;3.72;;
30743;SDS011;17486;46.738;7.622;2022-07-29T03:35:39;4.03;;;3.65;;
30743;SDS011;17486;46.738;7.622;2022-07-29T03:38:05;4.53;;;4.07;;
30743;SDS011;17486;46.738;7.622;2022-07-29T03:40:35;4.25;;;3.85;;
30743;SDS011;17486;46.738;7.622;2022-07-29T03:43:05;5.30;;;3.95;;
30743;SDS011;17486;46.738;7.622;2022-07-29T03:45:34;5.72;;;3.70;;
30743;SDS011;17486;46.738;7.622;2022-07-29T03:48:02;4.45;;;4.05;;
30743;SDS011;17486;46.738;7.622;2022-07-29T03:50:32;4.57;;;3.53;;
30743;SDS011;17486;46.738;7.622;2022-07-29T03:52:58;3.72;;;3.42;;
30743;SDS011;17486;46.738;7.622;2022-07-29T03:55:24;4.68;;;3.47;;
30743;SDS011;17486;46.738;7.622;2022-07-29T03:57:50;6.53;;;4.78;;
30743;SDS011;17486;46.738;7.622;2022-07-29T04:00:15;9.02;;;8.20;;
30743;SDS011;17486;46.738;7.622;2022-07-29T04:02:41;10.20;;;5.97;;
30743;SDS011;17486;46.738;7.622;2022-07-29T04:05:12;5.38;;;4.47;;
30743;SDS011;17486;46.738;7.622;2022-07-29T04:07:38;5.15;;;3.60;;
30743;SDS011;17486;46.738;7.622;2022-07-29T04:10:03;6.50;;;3.83;;
30743;SDS011;17486;46.738;7.622;2022-07-29T04:12:29;7.25;;;4.10;;
30743;SDS011;17486;46.738;7.622;2022-07-29T04:14:54;3.95;;;3.65;;
30743;SDS011;17486;46.738;7.622;2022-07-29T04:17:20;5.68;;;3.30;;
30743;SDS011;17486;46.738;7.622;2022-07-29T04:19:45;4.45;;;3.88;;
30743;SDS011;17486;46.738;7.622;2022-07-29T04:22:10;5.47;;;3.65;;
30743;SDS011;17486;46.738;7.622;2022-07-29T04:24:36;3.72;;;3.30;;
30743;SDS011;17486;46.738;7.622;2022-07-29T04:27:01;3.42;;;3.10;;
30743;SDS011;17486;46.738;7.622;2022-07-29T04:29:26;3.55;;;3.05;;
30743;SDS011;17486;46.738;7.622;2022-07-29T04:31:52;3.80;;;3.28;;
30743;SDS011;17486;46.738;7.622;2022-07-29T04:34:17;3.38;;;3.08;;
30743;SDS011;17486;46.738;7.622;2022-07-29T04:36:43;7.10;;;3.20;;
30743;SDS011;17486;46.738;7.622;2022-07-29T04:39:08;5.32;;;2.88;;
30743;SDS011;17486;46.738;7.622;2022-07-29T04:41:35;4.82;;;3.53;;
30743;SDS011;17486;46.738;7.622;2022-07-29T04:44:00;4.15;;;2.90;;
30743;SDS011;17486;46.738;7.622;2022-07-29T04:46:29;3.10;;;2.80;;
30743;SDS011;17486;46.738;7.622;2022-07-29T04:48:55;5.43;;;3.00;;
30743;SDS011;17486;46.738;7.622;2022-07-29T04:51:20;3.38;;;3.08;;
30743;SDS011;17486;46.738;7.622;2022-07-29T04:53:46;4.50;;;3.10;;
30743;SDS011;17486;46.738;7.622;2022-07-29T04:56:11;4.10;;;3.20;;
30743;SDS011;17486;46.738;7.622;2022-07-29T04:58:37;4.72;;;2.75;;
30743;SDS011;17486;46.738;7.622;2022-07-29T05:01:03;3.67;;;2.92;;
30743;SDS011;17486;46.738;7.622;2022-07-29T05:03:29;3.53;;;3.22;;
30743;SDS011;17486;46.738;7.622;2022-07-29T05:05:54;5.28;;;2.83;;
30743;SDS011;17486;46.738;7.622;2022-07-29T05:08:20;3.45;;;3.00;;
30743;SDS011;17486;46.738;7.622;2022-07-29T05:10:45;3.50;;;2.95;;
30743;SDS011;17486;46.738;7.622;2022-07-29T05:13:11;3.97;;;3.38;;
30743;SDS011;17486;46.738;7.622;2022-07-29T05:15:37;4.50;;;4.10;;
30743;SDS011;17486;46.738;7.622;2022-07-29T05:18:02;6.72;;;5.22;;
30743;SDS011;17486;46.738;7.622;2022-07-29T05:20:29;4.40;;;3.95;;
30743;SDS011;17486;46.738;7.622;2022-07-29T05:22:56;3.38;;;3.08;;
30743;SDS011;17486;46.738;7.622;2022-07-29T05:25:22;3.53;;;3.22;;
30743;SDS011;17486;46.738;7.622;2022-07-29T05:27:48;5.30;;;2.58;;
30743;SDS011;17486;46.738;7.622;2022-07-29T05:30:14;2.63;;;2.42;;
30743;SDS011;17486;46.738;7.622;2022-07-29T05:32:40;3.28;;;2.97;;
30743;SDS011;17486;46.738;7.622;2022-07-29T05:35:05;3.03;;;2.83;;
30743;SDS011;17486;46.738;7.622;2022-07-29T05:37:31;3.35;;;2.63;;
30743;SDS011;17486;46.738;7.622;2022-07-29T05:39:56;4.32;;;2.70;;
30743;SDS011;17486;46.738;7.622;2022-07-29T05:42:22;2.88;;;2.67;;
30743;SDS011;17486;46.738;7.622;2022-07-29T05:44:47;4.38;;;2.78;;
30743;SDS011;17486;46.738;7.622;2022-07-29T05:47:13;3.50;;;2.92;;
30743;SDS011;17486;46.738;7.622;2022-07-29T05:49:38;3.30;;;2.65;;
30743;SDS011;17486;46.738;7.622;2022-07-29T05:52:04;6.38;;;3.33;;
30743;SDS011;17486;46.738;7.622;2022-07-29T05:54:30;3.03;;;2.72;;
30743;SDS011;17486;46.738;7.622;2022-07-29T05:56:55;6.15;;;3.22;;
30743;SDS011;17486;46.738;7.622;2022-07-29T05:59:21;3.08;;;2.70;;
30743;SDS011;17486;46.738;7.622;2022-07-29T06:01:46;4.32;;;3.45;;
30743;SDS011;17486;46.738;7.622;2022-07-29T06:04:12;3.45;;;3.00;;
30743;SDS011;17486;46.738;7.622;2022-07-29T06:06:37;3.45;;;2.72;;
30743;SDS011;17486;46.738;7.622;2022-07-29T06:09:02;8.15;;;3.03;;
30743;SDS011;17486;46.738;7.622;2022-07-29T06:11:28;5.05;;;2.58;;
30743;SDS011;17486;46.738;7.622;2022-07-29T06:13:53;4.47;;;3.08;;
30743;SDS011;17486;46.738;7.622;2022-07-29T06:16:19;3.33;;;2.70;;
30743;SDS011;17486;46.738;7.622;2022-07-29T06:18:44;3.97;;;2.80;;
30743;SDS011;17486;46.738;7.622;2022-07-29T06:21:10;5.13;;;2.42;;
30743;SDS011;17486;46.738;7.622;2022-07-29T06:23:38;3.60;;;2.38;;
30743;SDS011;17486;46.738;7.622;2022-07-29T06:26:04;3.03;;;2.72;;
30743;SDS011;17486;46.738;7.622;2022-07-29T06:28:30;2.92;;;2.60;;
30743;SDS011;17486;46.738;7.622;2022-07-29T06:30:56;4.25;;;2.90;;
30743;SDS011;17486;46.738;7.622;2022-07-29T06:33:22;2.88;;;2.42;;
30743;SDS011;17486;46.738;7.622;2022-07-29T06:35:47;4.22;;;2.90;;
30743;SDS011;17486;46.738;7.622;2022-07-29T06:38:14;3.63;;;3.00;;
30743;SDS011;17486;46.738;7.622;2022-07-29T06:40:43;3.33;;;2.90;;
30743;SDS011;17486;46.738;7.622;2022-07-29T06:43:25;3.15;;;2.65;;
30743;SDS011;17486;46.738;7.622;2022-07-29T06:45:51;4.53;;;2.90;;
30743;SDS011;17486;46.738;7.622;2022-07-29T06:48:17;5.68;;;3.08;;
30743;SDS011;17486;46.738;7.622;2022-07-29T06:50:42;4.15;;;2.88;;
30743;SDS011;17486;46.738;7.622;2022-07-29T06:53:08;4.40;;;2.72;;
30743;SDS011;17486;46.738;7.622;2022-07-29T06:55:33;3.75;;;2.55;;
30743;SDS011;17486;46.738;7.622;2022-07-29T06:57:58;4.60;;;3.22;;
30743;SDS011;17486;46.738;7.622;2022-07-29T07:00:24;3.85;;;3.00;;
30743;SDS011;17486;46.738;7.622;2022-07-29T07:02:50;6.13;;;3.30;;
30743;SDS011;17486;46.738;7.622;2022-07-29T07:05:15;4.05;;;2.95;;
30743;SDS011;17486;46.738;7.622;2022-07-29T07:07:41;4.38;;;2.80;;
30743;SDS011;17486;46.738;7.622;2022-07-29T07:10:06;4.38;;;3.45;;
30743;SDS011;17486;46.738;7.622;2022-07-29T07:12:32;3.33;;;3.03;;
30743;SDS011;17486;46.738;7.622;2022-07-29T07:14:57;5.30;;;2.75;;
30743;SDS011;17486;46.738;7.622;2022-07-29T07:17:23;3.50;;;2.70;;
30743;SDS011;17486;46.738;7.622;2022-07-29T07:19:49;3.22;;;2.97;;
30743;SDS011;17486;46.738;7.622;2022-07-29T07:22:14;3.10;;;2.42;;
30743;SDS011;17486;46.738;7.622;2022-07-29T07:24:39;5.13;;;2.80;;
30743;SDS011;17486;46.738;7.622;2022-07-29T07:27:05;3.10;;;2.65;;
30743;SDS011;17486;46.738;7.622;2022-07-29T07:29:30;3.17;;;2.88;;
30743;SDS011;17486;46.738;7.622;2022-07-29T07:31:57;3.33;;;2.67;;
30743;SDS011;17486;46.738;7.622;2022-07-29T07:34:22;3.45;;;2.60;;
30743;SDS011;17486;46.738;7.622;2022-07-29T07:36:48;3.13;;;2.83;;
30743;SDS011;17486;46.738;7.622;2022-07-29T07:39:13;3.72;;;2.70;;
30743;SDS011;17486;46.738;7.622;2022-07-29T07:41:38;4.18;;;2.90;;
30743;SDS011;17486;46.738;7.622;2022-07-29T07:44:04;2.97;;;2.70;;
30743;SDS011;17486;46.738;7.622;2022-07-29T07:46:30;4.35;;;2.60;;
30743;SDS011;17486;46.738;7.622;2022-07-29T07:48:55;3.67;;;2.50;;
30743;SDS011;17486;46.738;7.622;2022-07-29T07:51:20;3.88;;;2.90;;
30743;SDS011;17486;46.738;7.622;2022-07-29T07:53:46;3.92;;;3.10;;
30743;SDS011;17486;46.738;7.622;2022-07-29T07:56:14;3.28;;;2.97;;
30743;SDS011;17486;46.738;7.622;2022-07-29T07:58:40;4.05;;;2.97;;
30743;SDS011;17486;46.738;7.622;2022-07-29T08:01:06;3.03;;;2.65;;
30743;SDS011;17486;46.738;7.622;2022-07-29T08:03:32;3.13;;;2.60;;
30743;SDS011;17486;46.738;7.622;2022-07-29T08:05:58;4.40;;;3.13;;
30743;SDS011;17486;46.738;7.622;2022-07-29T08:08:23;2.92;;;2.70;;
30743;SDS011;17486;46.738;7.622;2022-07-29T08:10:48;3.25;;;2.45;;
30743;SDS011;17486;46.738;7.622;2022-07-29T08:13:17;3.88;;;2.95;;
30743;SDS011;17486;46.738;7.622;2022-07-29T08:15:43;4.35;;;3.20;;
30743;SDS011;17486;46.738;7.622;2022-07-29T08:18:10;5.43;;;3.08;;
30743;SDS011;17486;46.738;7.622;2022-07-29T08:20:36;4.20;;;3.10;;
30743;SDS011;17486;46.738;7.622;2022-07-29T08:23:03;3.67;;;2.75;;
30743;SDS011;17486;46.738;7.622;2022-07-29T08:25:29;3.88;;;2.92;;
30743;SDS011;17486;46.738;7.622;2022-07-29T08:27:55;3.50;;;2.95;;
30743;SDS011;17486;46.738;7.622;2022-07-29T08:30:20;6.93;;;3.40;;
30743;SDS011;17486;46.738;7.622;2022-07-29T08:32:47;2.88;;;2.67;;
30743;SDS011;17486;46.738;7.622;2022-07-29T08:35:13;4.03;;;2.85;;
30743;SDS011;17486;46.738;7.622;2022-07-29T08:37:38;3.15;;;2.92;;
30743;SDS011;17486;46.738;7.622;2022-07-29T08:40:04;3.58;;;2.97;;
30743;SDS011;17486;46.738;7.622;2022-07-29T08:42:31;4.13;;;2.85;;
30743;SDS011;17486;46.738;7.622;2022-07-29T08:44:56;4.03;;;3.60;;
30743;SDS011;17486;46.738;7.622;2022-07-29T08:47:22;3.08;;;2.72;;
30743;SDS011;17486;46.738;7.622;2022-07-29T08:49:51;3.88;;;2.92;;
30743;SDS011;17486;46.738;7.622;2022-07-29T08:52:16;4.72;;;3.20;;
30743;SDS011;17486;46.738;7.622;2022-07-29T08:54:43;3.22;;;2.92;;
30743;SDS011;17486;46.738;7.622;2022-07-29T08:57:09;3.22;;;2.92;;
30743;SDS011;17486;46.738;7.622;2022-07-29T08:59:38;3.83;;;2.97;;
30743;SDS011;17486;46.738;7.622;2022-07-29T09:02:08;4.95;;;2.67;;
30743;SDS011;17486;46.738;7.622;2022-07-29T09:04:43;3.67;;;3.38;;
30743;SDS011;17486;46.738;7.622;2022-07-29T09:07:10;4.45;;;3.13;;
30743;SDS011;17486;46.738;7.622;2022-07-29T09:09:39;3.25;;;2.95;;
30743;SDS011;17486;46.738;7.622;2022-07-29T09:12:05;3.58;;;3.03;;
30743;SDS011;17486;46.738;7.622;2022-07-29T09:14:33;6.85;;;3.40;;
30743;SDS011;17486;46.738;7.622;2022-07-29T09:16:58;4.68;;;3.25;;
30743;SDS011;17486;46.738;7.622;2022-07-29T09:19:25;3.53;;;3.22;;
30743;SDS011;17486;46.738;7.622;2022-07-29T09:21:56;5.07;;;3.17;;
30743;SDS011;17486;46.738;7.622;2022-07-29T09:24:24;7.00;;;3.38;;
30743;SDS011;17486;46.738;7.622;2022-07-29T09:27:20;3.88;;;3.47;;
30743;SDS011;17486;46.738;7.622;2022-07-29T09:29:55;6.10;;;3.53;;
30743;SDS011;17486;46.738;7.622;2022-07-29T09:32:22;5.00;;;3.45;;
30743;SDS011;17486;46.738;7.622;2022-07-29T09:34:47;4.10;;;3.75;;
30743;SDS011;17486;46.738;7.622;2022-07-29T09:37:24;5.50;;;3.75;;
30743;SDS011;17486;46.738;7.622;2022-07-29T09:39:51;3.92;;;3.60;;
30743;SDS011;17486;46.738;7.622;2022-07-29T09:42:26;4.18;;;3.78;;
30743;SDS011;17486;46.738;7.622;2022-07-29T09:44:53;5.60;;;4.10;;
30743;SDS011;17486;46.738;7.622;2022-07-29T09:47:19;4.28;;;3.88;;
30743;SDS011;17486;46.738;7.622;2022-07-29T09:52:27;4.25;;;3.55;;
30743;SDS011;17486;46.738;7.622;2022-07-29T09:55:06;4.53;;;3.63;;
30743;SDS011;17486;46.738;7.622;2022-07-29T09:57:33;3.95;;;3.65;;
30743;SDS011;17486;46.738;7.622;2022-07-29T10:00:03;4.97;;;3.97;;
30743;SDS011;17486;46.738;7.622;2022-07-29T10:02:33;4.95;;;3.97;;
30743;SDS011;17486;46.738;7.622;2022-07-29T10:05:01;3.80;;;3.50;;
30743;SDS011;17486;46.738;7.622;2022-07-29T10:10:09;6.30;;;4.10;;
30743;SDS011;17486;46.738;7.622;2022-07-29T10:12:38;5.40;;;3.88;;
30743;SDS011;17486;46.738;7.622;2022-07-29T10:15:14;7.18;;;4.38;;
30743;SDS011;17486;46.738;7.622;2022-07-29T10:17:40;6.15;;;4.32;;
30743;SDS011;17486;46.738;7.622;2022-07-29T10:20:06;4.97;;;4.22;;
30743;SDS011;17486;46.738;7.622;2022-07-29T10:22:33;4.65;;;3.97;;
30743;SDS011;17486;46.738;7.622;2022-07-29T10:24:58;4.45;;;4.00;;
30743;SDS011;17486;46.738;7.622;2022-07-29T10:27:24;4.70;;;4.10;;
30743;SDS011;17486;46.738;7.622;2022-07-29T10:29:50;4.82;;;4.05;;
30743;SDS011;17486;46.738;7.622;2022-07-29T10:43:49;4.82;;;4.43;;
30743;SDS011;17486;46.738;7.622;2022-07-29T10:46:16;5.55;;;4.45;;
30743;SDS011;17486;46.738;7.622;2022-07-29T10:54:19;5.50;;;4.47;;
30743;SDS011;17486;46.738;7.622;2022-07-29T10:57:22;6.22;;;4.45;;
30743;SDS011;17486;46.738;7.622;2022-07-29T11:05:14;5.75;;;4.25;;
30743;SDS011;17486;46.738;7.622;2022-07-29T11:10:37;8.05;;;4.97;;
30743;SDS011;17486;46.738;7.622;2022-07-29T11:13:03;5.68;;;4.93;;
30743;SDS011;17486;46.738;7.622;2022-07-29T11:15:29;7.07;;;4.97;;
30743;SDS011;17486;46.738;7.622;2022-07-29T11:18:17;5.30;;;4.45;;
30743;SDS011;17486;46.738;7.622;2022-07-29T11:20:44;5.25;;;4.47;;
30743;SDS011;17486;46.738;7.622;2022-07-29T11:23:18;4.97;;;4.30;;
30743;SDS011;17486;46.738;7.622;2022-07-29T11:28:36;7.43;;;4.65;;
30743;SDS011;17486;46.738;7.622;2022-07-29T11:31:12;4.35;;;3.95;;
30743;SDS011;17486;46.738;7.622;2022-07-29T11:33:38;6.05;;;4.18;;
30743;SDS011;17486;46.738;7.622;2022-07-29T11:36:08;6.72;;;3.92;;
30743;SDS011;17486;46.738;7.622;2022-07-29T11:38:39;5.45;;;4.25;;
30743;SDS011;17486;46.738;7.622;2022-07-29T11:41:38;7.15;;;4.03;;
30743;SDS011;17486;46.738;7.622;2022-07-29T11:44:02;3.95;;;3.65;;
30743;SDS011;17486;46.738;7.622;2022-07-29T11:46:46;5.07;;;3.33;;
30743;SDS011;17486;46.738;7.622;2022-07-29T11:49:20;3.50;;;3.20;;
30743;SDS011;17486;46.738;7.622;2022-07-29T11:51:54;3.95;;;3.45;;
30743;SDS011;17486;46.738;7.622;2022-07-29T11:54:24;3.50;;;3.20;;
30743;SDS011;17486;46.738;7.622;2022-07-29T11:56:53;3.53;;;3.20;;
30743;SDS011;17486;46.738;7.622;2022-07-29T11:59:19;4.88;;;3.28;;
30743;SDS011;17486;46.738;7.622;2022-07-29T12:01:52;4.63;;;3.33;;
30743;SDS011;17486;46.738;7.622;2022-07-29T12:04:18;4.03;;;3.63;;
30743;SDS011;17486;46.738;7.622;2022-07-29T12:06:48;3.90;;;3.50;;
30743;SDS011;17486;46.738;7.622;2022-07-29T12:09:18;4.00;;;3.60;;
30743;SDS011;17486;46.738;7.622;2022-07-29T12:11:44;5.35;;;4.05;;
30743;SDS011;17486;46.738;7.622;2022-07-29T12:14:24;4.32;;;3.92;;
30743;SDS011;17486;46.738;7.622;2022-07-29T12:16:53;4.88;;;4.25;;
30743;SDS011;17486;46.738;7.622;2022-07-29T12:19:19;5.35;;;4.10;;
30743;SDS011;17486;46.738;7.622;2022-07-29T12:21:48;4.63;;;4.13;;
30743;SDS011;17486;46.738;7.622;2022-07-29T12:24:19;5.35;;;4.43;;
30743;SDS011;17486;46.738;7.622;2022-07-29T12:26:53;4.68;;;4.05;;
30743;SDS011;17486;46.738;7.622;2022-07-29T12:29:20;3.95;;;3.65;;
30743;SDS011;17486;46.738;7.622;2022-07-29T12:31:46;6.10;;;4.10;;
30743;SDS011;17486;46.738;7.622;2022-07-29T12:34:19;4.72;;;4.30;;
30743;SDS011;17486;46.738;7.622;2022-07-29T12:36:47;6.13;;;4.00;;
30743;SDS011;17486;46.738;7.622;2022-07-29T12:39:13;4.95;;;3.90;;
30743;SDS011;17486;46.738;7.622;2022-07-29T12:41:41;3.97;;;3.67;;
30743;SDS011;17486;46.738;7.622;2022-07-29T12:44:06;4.60;;;4.13;;
30743;SDS011;17486;46.738;7.622;2022-07-29T12:46:32;7.05;;;4.35;;
30743;SDS011;17486;46.738;7.622;2022-07-29T12:48:57;5.20;;;4.70;;
30743;SDS011;17486;46.738;7.622;2022-07-29T12:51:30;5.25;;;4.32;;
30743;SDS011;17486;46.738;7.622;2022-07-29T12:56:38;6.95;;;5.05;;
30743;SDS011;17486;46.738;7.622;2022-07-29T12:59:16;7.28;;;5.13;;
30743;SDS011;17486;46.738;7.622;2022-07-29T13:01:47;6.40;;;4.45;;
30743;SDS011;17486;46.738;7.622;2022-07-29T13:07:26;5.32;;;4.82;;
30743;SDS011;17486;46.738;7.622;2022-07-29T13:09:48;6.03;;;4.45;;
30743;SDS011;17486;46.738;7.622;2022-07-29T13:12:14;4.95;;;4.22;;
30743;SDS011;17486;46.738;7.622;2022-07-29T13:14:40;4.18;;;3.10;;
30743;SDS011;17486;46.738;7.622;2022-07-29T13:17:14;2.97;;;1.95;;
30743;SDS011;17486;46.738;7.622;2022-07-29T13:19:41;3.92;;;1.80;;
30743;SDS011;17486;46.738;7.622;2022-07-29T13:22:12;2.95;;;1.60;;
30743;SDS011;17486;46.738;7.622;2022-07-29T13:24:46;4.20;;;1.55;;
30743;SDS011;17486;46.738;7.622;2022-07-29T13:27:18;2.45;;;1.45;;
30743;SDS011;17486;46.738;7.622;2022-07-29T13:29:45;1.40;;;1.30;;
30743;SDS011;17486;46.738;7.622;2022-07-29T13:32:11;1.85;;;1.50;;
30743;SDS011;17486;46.738;7.622;2022-07-29T13:34:37;2.78;;;1.45;;
30743;SDS011;17486;46.738;7.622;2022-07-29T13:37:02;2.97;;;1.60;;
30743;SDS011;17486;46.738;7.622;2022-07-29T13:39:28;1.80;;;1.60;;
30743;SDS011;17486;46.738;7.622;2022-07-29T13:41:53;1.98;;;1.77;;
30743;SDS011;17486;46.738;7.622;2022-07-29T13:44:19;3.35;;;1.95;;
30743;SDS011;17486;46.738;7.622;2022-07-29T13:46:44;4.35;;;2.35;;
30743;SDS011;17486;46.738;7.622;2022-07-29T13:49:10;2.28;;;2.08;;
30743;SDS011;17486;46.738;7.622;2022-07-29T13:51:36;2.35;;;1.98;;
30743;SDS011;17486;46.738;7.622;2022-07-29T13:54:02;3.30;;;2.10;;
30743;SDS011;17486;46.738;7.622;2022-07-29T13:56:27;3.30;;;2.20;;
30743;SDS011;17486;46.738;7.622;2022-07-29T13:58:53;4.97;;;2.47;;
30743;SDS011;17486;46.738;7.622;2022-07-29T14:01:18;3.88;;;2.35;;
30743;SDS011;17486;46.738;7.622;2022-07-29T14:03:44;2.70;;;2.00;;
30743;SDS011;17486;46.738;7.622;2022-07-29T14:06:09;2.03;;;1.80;;
30743;SDS011;17486;46.738;7.622;2022-07-29T14:08:34;3.72;;;2.20;;
30743;SDS011;17486;46.738;7.622;2022-07-29T14:11:00;2.47;;;1.73;;
30743;SDS011;17486;46.738;7.622;2022-07-29T14:13:25;3.25;;;1.77;;
30743;SDS011;17486;46.738;7.622;2022-07-29T14:15:51;2.63;;;1.75;;
30743;SDS011;17486;46.738;7.622;2022-07-29T14:18:17;1.63;;;1.52;;
30743;SDS011;17486;46.738;7.622;2022-07-29T14:20:43;2.45;;;1.58;;
30743;SDS011;17486;46.738;7.622;2022-07-29T14:23:08;2.17;;;1.85;;
30743;SDS011;17486;46.738;7.622;2022-07-29T14:25:34;3.08;;;1.48;;
30743;SDS011;17486;46.738;7.622;2022-07-29T14:27:59;3.30;;;1.92;;
30743;SDS011;17486;46.738;7.622;2022-07-29T14:30:25;1.70;;;1.60;;
30743;SDS011;17486;46.738;7.622;2022-07-29T14:32:50;3.13;;;1.52;;
30743;SDS011;17486;46.738;7.622;2022-07-29T14:35:15;1.40;;;1.30;;
30743;SDS011;17486;46.738;7.622;2022-07-29T14:37:41;1.63;;;1.45;;
30743;SDS011;17486;46.738;7.622;2022-07-29T14:40:07;1.35;;;1.25;;
30743;SDS011;17486;46.738;7.622;2022-07-29T14:42:33;1.65;;;1.50;;
30743;SDS011;17486;46.738;7.622;2022-07-29T14:44:59;2.05;;;1.70;;
30743;SDS011;17486;46.738;7.622;2022-07-29T14:47:25;2.45;;;1.83;;
30743;SDS011;17486;46.738;7.622;2022-07-29T14:49:50;4.25;;;2.00;;
30743;SDS011;17486;46.738;7.622;2022-07-29T14:52:15;4.32;;;2.45;;
30743;SDS011;17486;46.738;7.622;2022-07-29T14:54:41;3.78;;;2.45;;
30743;SDS011;17486;46.738;7.622;2022-07-29T14:57:06;2.17;;;1.88;;
30743;SDS011;17486;46.738;7.622;2022-07-29T14:59:32;4.30;;;2.55;;
30743;SDS011;17486;46.738;7.622;2022-07-29T15:01:57;7.57;;;2.15;;
30743;SDS011;17486;46.738;7.622;2022-07-29T15:04:23;2.25;;;2.03;;
30743;SDS011;17486;46.738;7.622;2022-07-29T15:06:48;3.85;;;2.10;;
30743;SDS011;17486;46.738;7.622;2022-07-29T15:09:13;3.65;;;1.75;;
30743;SDS011;17486;46.738;7.622;2022-07-29T15:11:39;3.42;;;2.10;;
30743;SDS011;17486;46.738;7.622;2022-07-29T15:14:05;2.45;;;1.95;;
30743;SDS011;17486;46.738;7.622;2022-07-29T15:16:31;4.10;;;1.90;;
30743;SDS011;17486;46.738;7.622;2022-07-29T15:18:56;2.20;;;1.90;;
30743;SDS011;17486;46.738;7.622;2022-07-29T15:21:22;3.20;;;1.90;;
30743;SDS011;17486;46.738;7.622;2022-07-29T15:23:48;2.15;;;1.63;;
30743;SDS011;17486;46.738;7.622;2022-07-29T15:26:14;2.20;;;1.80;;
30743;SDS011;17486;46.738;7.622;2022-07-29T15:28:39;2.42;;;1.70;;
30743;SDS011;17486;46.738;7.622;2022-07-29T15:31:05;2.13;;;1.83;;
30743;SDS011;17486;46.738;7.622;2022-07-29T15:33:30;2.65;;;1.67;;
30743;SDS011;17486;46.738;7.622;2022-07-29T15:35:56;2.40;;;1.77;;
30743;SDS011;17486;46.738;7.622;2022-07-29T15:38:21;1.85;;;1.70;;
30743;SDS011;17486;46.738;7.622;2022-07-29T15:40:47;1.70;;;1.58;;
30743;SDS011;17486;46.738;7.622;2022-07-29T15:43:12;1.63;;;1.52;;